Main page
METAR-TAF:

METAR-TAF

Airports :

Storm Hills, Northwest Territories, Canada

latitude: 68-54N, longitude: 133-56W, elevation: 261 m

Current weather observation

The report was made 31 minutes ago, at 00:00 UTC
Wind 14 kt from the East/Northeast with gusts up to 32 kt
Temperature -10°C
Humidity 79%
Pressure 1019 hPa

METAR: CWVH 250000Z AUTO 06014G32KT ////SM ////// M10/M13 A3009

Time: 18:31 (00:31 UTC)


TAF: missing

Weather observations and forecasts of more than 4000 airports (METAR and TAF reports).

The available stations are represented by yellow and red dots on the map.

Hover mouse over dot to see the name of the station.

Then click to see weather observations and forecasts.

To change the map : click on the green buttons with a black cross to zoom in, on the green button with a dash to zoom out, or on the green arrows for adjacent maps.


METAR-TAF: